KLWB

Greenbrier Valley Airport

Lewisburg, West Virginia, USA
METAR KLWB 220935Z AUTO 00000KT 5SM BR SCT080 BKN110 17/17 A3015 RMK AO2 T01670165
Observed Flight Rules
May-22 @ 09:35 UTC (35 minutes ago) Marginal Visual Flight Rules
Visibility Clouds Conditions
5 miles
  • Scattered at 8,000' AGL
  • Broken at 11,000' AGL
  • Mist
Temperatures Readings
Current 17°C / 63°F
Dewpoint 17°C / 63°F
Humidity 100%
Altimeter 30.15" Hg
Pressure 1021 hPa
Elevation 702
METAR KLWB 220935Z AUTO 00000KT 5SM BR SCT080 BKN110 17/17 A3015 RMK AO2 T01670165
Observed Flight Rules
May-22 @ 09:35 UTC
(35 minutes ago)
MVFR
Clouds
  • Scattered at 8,000' AGL
  • Broken at 11,000' AGL
Conditions
  • Mist
Temperature Dewpoint
17°C / 63°F 17°C / 63°F
Humidity Altimeter Pressure
100% 30.15" Hg 1021 hPa